EST,Max TemperatureF,Mean TemperatureF,Min TemperatureF,Max Dew PointF,MeanDew PointF,Min DewpointF,Max Humidity, Mean Humidity, Min Humidity, Max Sea Level PressureIn, Mean Sea Level PressureIn, Min Sea Level PressureIn, Max VisibilityMiles, Mean VisibilityMiles, Min VisibilityMiles, Max Wind SpeedMPH, Mean Wind SpeedMPH, Max Gust SpeedMPH,PrecipitationIn, CloudCover, Events, WindDirDegrees
2013-11-1,73,63,52,63,58,55,100,77,53,29.78,29.70,29.63,10,6,0,26,10,35,0.02,4,Fog-Rain,204
2013-11-2,68,54,40,54,43,30,100,65,29,29.95,29.76,29.69,10,6,0,15,4,24,0.00,2,Fog,274
2013-11-3,61,49,37,37,33,29,76,53,29,30.40,30.18,29.96,10,10,10,14,3,24,0.00,0,,320
2013-11-4,50,41,32,27,25,24,70,55,39,30.61,30.55,30.42,10,10,10,15,7,22,0.00,0,,50
2013-11-5,53,44,35,42,32,25,86,64,42,30.61,30.55,30.48,10,10,10,8,4,10,T,6,,26
2013-11-6,67,57,46,49,46,43,100,76,52,30.47,30.32,30.13,10,10,10,12,2,,0.00,5,,182
2013-11-7,63,51,38,53,42,28,100,68,36,30.14,30.03,29.95,10,10,8,16,5,23,T,4,Rain,261
2013-11-8,54,40,26,27,23,19,84,56,28,30.35,30.26,30.15,10,10,10,13,3,22,0.00,0,,267
2013-11-9,56,40,24,30,26,22,92,61,30,30.40,30.27,30.13,10,10,10,17,5,25,0.00,0,,203
2013-11-10,67,52,36,35,26,16,70,43,15,30.29,30.14,30.04,10,10,10,20,6,31,0.00,0,,251
2013-11-11,58,42,25,29,25,23,85,55,25,30.35,30.24,30.10,10,10,10,15,4,20,0.00,0,,198
2013-11-12,53,39,25,34,22,10,60,48,35,30.46,30.21,30.00,10,10,10,20,8,24,T,4,Rain,338
2013-11-13,46,34,21,16,13,11,74,50,25,30.54,30.48,30.45,10,10,10,13,3,20,0.00,0,,282
2013-11-14,59,41,23,20,15,9,74,45,15,30.43,30.36,30.30,10,10,10,14,5,21,0.00,0,,213
2013-11-15,60,44,27,48,32,19,100,63,26,30.33,30.26,30.21,10,9,4,15,4,17,0.22,3,Rain,204
2013-11-16,55,52,48,54,51,48,100,93,86,30.31,30.26,30.23,9,3,0,6,1,8,0.09,8,Fog-Rain,75
2013-11-17,60,57,53,60,55,53,100,100,100,30.24,30.10,29.82,9,2,0,12,4,15,0.07,8,Fog-Rain,186
2013-11-18,68,59,50,62,37,21,100,60,19,29.99,29.87,29.78,10,10,8,18,8,26,0.08,3,Rain,271
2013-11-19,52,44,35,27,24,23,64,48,32,30.36,30.18,29.99,10,10,10,16,5,24,0.00,0,,12
2013-11-20,47,40,33,28,24,22,69,54,38,30.53,30.47,30.38,10,10,10,16,8,22,0.00,3,,41
2013-11-21,50,44,37,41,35,28,83,72,61,30.56,30.48,30.43,10,10,10,12,4,,0.00,8,,18
2013-11-22,70,58,46,55,48,40,86,73,59,30.41,30.22,30.06,10,10,10,16,6,20,T,7,,209
2013-11-23,60,48,35,52,29,11,80,50,19,30.23,30.12,30.06,10,10,10,16,7,26,0.00,2,,290
2013-11-24,35,29,22,11,1,-3,44,33,22,30.56,30.44,30.25,10,10,10,15,6,24,0.00,0,,351
2013-11-25,36,25,14,13,9,5,80,55,29,30.58,30.49,30.38,10,10,10,14,3,18,0.00,2,,201
2013-11-26,44,37,30,44,34,16,100,71,41,30.35,29.99,29.60,10,4,2,18,6,22,2.50,8,Rain,12
2013-11-27,44,35,25,45,32,11,100,75,49,30.15,29.71,29.52,10,9,3,15,6,26,0.37,7,Rain-Snow,305
2013-11-28,40,29,17,18,15,12,77,56,34,30.48,30.37,30.18,10,10,10,8,2,12,0.00,0,,212
2013-11-29,46,32,18,21,19,16,91,64,37,30.70,30.58,30.46,10,10,10,13,4,16,0.00,0,,33
2013-11-30,40,31,22,22,20,18,88,66,44,30.70,30.58,30.40,10,10,10,12,4,15,0.00,0,,30